Route Details

Aircraft Information
Group: North America Fleet
Types: B738, B752, B762, B763
Route Data
Distance: 362nm
Duration: 1h 39m
Origin METAR: KLAL 010555Z AUTO 09004KT 10SM CLR 17/15 A3019 RMK AO2 T01670153 10229 20166
Dest. METAR: KATL 010552Z 27005KT 10SM BKN050 OVC065 14/13 A3014 RMK AO2 RAE20 SLP205 P0003 60004 T01440133 10178 20144 58001
Freight Data
(for Feb 1, 2023)
Load Factor:
41%
Manifested Cargo: 51,659lbs
Financial History
Total Freight: 177,009lbs
Average Load: 0lbs/flt
Fuel Used: 53,979lbs
Avg. Fuel Used: 0lbs/flt
Fuel Expense: $25,956
Avg. Fuel Expense: $0
Avg. Fuel Cost: $0/lbs
Total Gross Income: $435,442
Pilot Pay: $617
Total Expenses: $102,211
Total Revenue: $305,948
Average Revenue: $0

Capitol Logistics 486




KLAL
Lakeland Linder Regional Airport
Lakeland, Florida
KATL
Hartsfield - Jackson Atlanta International Airport
Atlanta, Georgia

Activity Log

Date Flight Route Aircraft Duration
11/21/2022 CPX486 DCT NITTS DCT BRUTS Q118 JAMIZ DCT BEORN GNDLF2 B752 1h 16m
09/04/2022 CPX486 NITTS WILON CAMJO AMG/N0450F360 LARZZ JJEDI2 B738 1h 19m
07/14/2022 CPX486 DCT NITTS DCT WILON DCT CAMJO DCT AMG DCT LARZZ JJEDI2 B762 1h 17m